Time;durP1;ratioP1;P1;durP2;ratioP2;P2;SDS_P1;SDS_P2;PMS_P1;PMS_P2;Temp;Humidity;BMP_temperature;BMP_pressure;BME280_temperature;BME280_humidity;BME280_pressure;Samples;Min_cycle;Max_cycle;Signal;HPM_P1;HPM_P2
2023/07/25 00:00:08;;;;;;;6.60;5.18;;;;;;;;;;5033572;28;20047;-79
2023/07/25 00:02:33;;;;;;;2.88;2.50;;;;;;;;;;5034391;28;20033;-78
2023/07/25 04:37:10;;;;;;;2.60;1.00;;;;;;;;;;5044885;23;20051;-72
2023/07/25 04:39:35;;;;;;;12.93;1.88;;;;;;;;;;5055875;28;20240;-73
2023/07/25 04:42:01;;;;;;;1.35;0.85;;;;;;;;;;5055526;28;20028;-73
2023/07/25 04:44:26;;;;;;;7.40;1.35;;;;;;;;;;5054474;28;20043;-73
2023/07/25 04:46:51;;;;;;;2.78;1.35;;;;;;;;;;5067392;28;20044;-72
2023/07/25 04:49:17;;;;;;;1.15;0.95;;;;;;;;;;5068214;28;20101;-73
2023/07/25 04:51:42;;;;;;;2.58;1.35;;;;;;;;;;5066371;28;20021;-71
2023/07/25 04:54:08;;;;;;;1.38;1.27;;;;;;;;;;5069667;28;20081;-71
2023/07/25 04:56:33;;;;;;;1.33;1.08;;;;;;;;;;5066707;28;20048;-72
2023/07/25 04:58:58;;;;;;;3.25;1.30;;;;;;;;;;5065526;28;20020;-72
2023/07/25 05:01:24;;;;;;;3.08;1.40;;;;;;;;;;5073160;28;20043;-71
2023/07/25 05:03:49;;;;;;;2.80;1.10;;;;;;;;;;5074249;28;20024;-73
2023/07/25 05:06:15;;;;;;;1.42;1.20;;;;;;;;;;5069600;28;20389;-72
2023/07/25 05:08:40;;;;;;;1.33;1.13;;;;;;;;;;5068572;28;20501;-72
2023/07/25 05:11:06;;;;;;;2.15;1.40;;;;;;;;;;5071061;28;20027;-72
2023/07/25 05:13:32;;;;;;;3.15;1.55;;;;;;;;;;5068150;28;20647;-71
2023/07/25 05:15:57;;;;;;;1.80;1.15;;;;;;;;;;5076976;28;20071;-72
2023/07/25 05:18:23;;;;;;;2.65;1.30;;;;;;;;;;5071404;28;20040;-72
2023/07/25 05:20:48;;;;;;;2.55;1.13;;;;;;;;;;5068384;28;20123;-71
2023/07/25 05:23:13;;;;;;;3.80;1.80;;;;;;;;;;5070328;28;20036;-72
2023/07/25 05:25:39;;;;;;;3.90;1.10;;;;;;;;;;5062691;28;20047;-71
2023/07/25 05:28:04;;;;;;;1.40;1.23;;;;;;;;;;5067592;28;20025;-71
2023/07/25 05:30:30;;;;;;;1.55;1.33;;;;;;;;;;5072570;28;20020;-72
2023/07/25 05:32:55;;;;;;;3.03;1.00;;;;;;;;;;5075715;28;20028;-71
2023/07/25 05:35:21;;;;;;;3.90;1.00;;;;;;;;;;5071763;28;20017;-71
2023/07/25 05:37:46;;;;;;;1.58;1.02;;;;;;;;;;5071190;28;20066;-72
2023/07/25 05:40:11;;;;;;;2.50;1.30;;;;;;;;;;5069766;28;20040;-72
2023/07/25 05:42:37;;;;;;;0.80;0.75;;;;;;;;;;5068180;28;20554;-71
2023/07/25 05:45:03;;;;;;;1.73;0.80;;;;;;;;;;5075974;28;20507;-71
2023/07/25 05:47:28;;;;;;;2.35;1.00;;;;;;;;;;5073650;28;20029;-72
2023/07/25 05:49:54;;;;;;;1.30;1.10;;;;;;;;;;5069708;28;20437;-71
2023/07/25 05:52:20;;;;;;;3.25;1.10;;;;;;;;;;5067711;28;20039;-71
2023/07/25 05:54:45;;;;;;;1.80;1.00;;;;;;;;;;5063758;28;20029;-71
2023/07/25 05:57:11;;;;;;;2.28;1.30;;;;;;;;;;5072940;28;20652;-71
2023/07/25 05:59:36;;;;;;;1.48;0.80;;;;;;;;;;5074722;28;20112;-71
2023/07/25 06:02:03;;;;;;;1.02;0.80;;;;;;;;;;5072410;28;20028;-72
2023/07/25 06:04:29;;;;;;;0.80;0.80;;;;;;;;;;5071490;28;20097;-72
2023/07/25 06:06:54;;;;;;;0.80;0.68;;;;;;;;;;5072492;28;20463;-72
2023/07/25 06:09:20;;;;;;;2.25;1.05;;;;;;;;;;5070472;28;20055;-72
2023/07/25 06:11:45;;;;;;;2.92;1.30;;;;;;;;;;5071421;28;20048;-72
2023/07/25 06:14:10;;;;;;;2.47;0.70;;;;;;;;;;5069258;28;20021;-72
2023/07/25 06:16:36;;;;;;;0.85;0.80;;;;;;;;;;5072634;28;20369;-72
2023/07/25 06:19:02;;;;;;;3.78;1.15;;;;;;;;;;5068009;28;20036;-72
2023/07/25 06:21:27;;;;;;;1.33;1.00;;;;;;;;;;5064994;28;20032;-73
2023/07/25 06:23:53;;;;;;;5.10;1.50;;;;;;;;;;5068876;28;20032;-72
2023/07/25 06:26:18;;;;;;;1.13;0.70;;;;;;;;;;5066081;28;20016;-72
2023/07/25 06:28:44;;;;;;;2.72;1.13;;;;;;;;;;5068127;28;20451;-72
2023/07/25 06:31:10;;;;;;;1.65;0.70;;;;;;;;;;5076797;28;20031;-72
2023/07/25 06:33:35;;;;;;;2.25;0.93;;;;;;;;;;5055793;28;20020;-73
2023/07/25 06:36:00;;;;;;;0.75;0.55;;;;;;;;;;5065952;28;20017;-72
2023/07/25 06:38:26;;;;;;;0.70;0.63;;;;;;;;;;5066657;28;20646;-72
2023/07/25 06:40:51;;;;;;;0.50;0.50;;;;;;;;;;5066508;28;20025;-72
2023/07/25 06:43:16;;;;;;;2.28;0.90;;;;;;;;;;5067543;28;20043;-72
2023/07/25 06:45:42;;;;;;;0.68;0.68;;;;;;;;;;5064011;28;20020;-72
2023/07/25 06:48:07;;;;;;;2.35;1.00;;;;;;;;;;5070665;28;20047;-72
2023/07/25 06:50:33;;;;;;;0.98;0.77;;;;;;;;;;5062277;28;20028;-72
2023/07/25 06:52:59;;;;;;;1.10;1.00;;;;;;;;;;5062178;28;20032;-72
2023/07/25 06:55:25;;;;;;;1.55;1.02;;;;;;;;;;5066871;28;20041;-72
2023/07/25 06:57:50;;;;;;;2.17;1.00;;;;;;;;;;5060028;28;20009;-72
2023/07/25 07:00:16;;;;;;;1.05;0.95;;;;;;;;;;5072064;28;20365;-72
2023/07/25 07:02:41;;;;;;;3.05;1.05;;;;;;;;;;5068321;28;20056;-72
2023/07/25 07:05:07;;;;;;;1.08;0.85;;;;;;;;;;5065513;28;20044;-72
2023/07/25 07:07:33;;;;;;;2.42;1.27;;;;;;;;;;5064921;28;20031;-72
2023/07/25 07:09:58;;;;;;;2.38;0.93;;;;;;;;;;5066555;28;20434;-72
2023/07/25 07:12:24;;;;;;;1.70;1.20;;;;;;;;;;5067544;28;20035;-73
2023/07/25 07:14:49;;;;;;;4.70;1.20;;;;;;;;;;5069768;28;20073;-72
2023/07/25 07:17:14;;;;;;;2.90;1.20;;;;;;;;;;5066936;28;20056;-73
2023/07/25 07:19:40;;;;;;;0.98;0.70;;;;;;;;;;5067084;28;20032;-72
2023/07/25 07:22:05;;;;;;;1.08;0.95;;;;;;;;;;5063640;28;20469;-72
2023/07/25 07:24:30;;;;;;;2.55;0.90;;;;;;;;;;5066625;28;20488;-72
2023/07/25 07:26:56;;;;;;;1.73;0.90;;;;;;;;;;5068401;28;20017;-73
2023/07/25 07:29:21;;;;;;;0.77;0.65;;;;;;;;;;5066632;28;20028;-73
2023/07/25 07:31:46;;;;;;;1.10;0.90;;;;;;;;;;5067407;28;20500;-72
2023/07/25 07:34:14;;;;;;;2.47;1.10;;;;;;;;;;5063052;28;20039;-72
2023/07/25 07:36:43;;;;;;;0.57;0.52;;;;;;;;;;5065413;28;20030;-72
2023/07/25 07:39:09;;;;;;;2.35;1.17;;;;;;;;;;5066614;28;20051;-72
2023/07/25 07:41:34;;;;;;;2.40;0.90;;;;;;;;;;5068890;28;20059;-72
2023/07/25 07:44:00;;;;;;;1.63;1.05;;;;;;;;;;5055258;28;20163;-73
2023/07/25 07:46:32;;;;;;;1.80;1.02;;;;;;;;;;5055420;28;20043;-72
2023/07/25 07:48:58;;;;;;;1.23;0.80;;;;;;;;;;5059500;28;20591;-72
2023/07/25 07:51:24;;;;;;;3.60;1.05;;;;;;;;;;5063406;28;20037;-72
2023/07/25 07:53:50;;;;;;;1.77;1.00;;;;;;;;;;5065395;28;20047;-72
2023/07/25 07:56:16;;;;;;;3.22;1.35;;;;;;;;;;5066308;28;20629;-72
2023/07/25 07:58:41;;;;;;;2.42;0.80;;;;;;;;;;5063345;28;20042;-72
2023/07/25 08:01:17;;;;;;;2.70;1.00;;;;;;;;;;5066795;28;20215;-73
2023/07/25 08:03:44;;;;;;;0.93;0.73;;;;;;;;;;5062168;28;20032;-72
2023/07/25 08:06:09;;;;;;;2.85;1.20;;;;;;;;;;5064979;28;20048;-72
2023/07/25 08:08:34;;;;;;;2.65;1.13;;;;;;;;;;5058136;28;20103;-72
2023/07/25 08:11:00;;;;;;;2.92;1.08;;;;;;;;;;5067852;28;20476;-73
2023/07/25 08:13:25;;;;;;;1.70;0.88;;;;;;;;;;5066152;28;20025;-73
2023/07/25 08:15:50;;;;;;;1.52;0.98;;;;;;;;;;5069300;28;20028;-73
2023/07/25 08:18:16;;;;;;;1.45;1.02;;;;;;;;;;5063359;28;20885;-73
2023/07/25 08:20:42;;;;;;;4.63;1.27;;;;;;;;;;5065022;28;20032;-73
2023/07/25 08:23:07;;;;;;;0.95;0.80;;;;;;;;;;5063731;28;20025;-73
2023/07/25 08:25:33;;;;;;;1.58;1.20;;;;;;;;;;5066132;28;20098;-73
2023/07/25 08:27:58;;;;;;;1.23;1.05;;;;;;;;;;5072148;28;20028;-73
2023/07/25 08:30:23;;;;;;;2.85;0.98;;;;;;;;;;5070527;28;20111;-73
2023/07/25 08:32:49;;;;;;;6.57;1.23;;;;;;;;;;5069988;28;20044;-73
2023/07/25 08:35:14;;;;;;;3.20;1.10;;;;;;;;;;5066522;28;20590;-73
2023/07/25 08:37:39;;;;;;;3.63;1.10;;;;;;;;;;5070175;28;20027;-73
2023/07/25 08:40:06;;;;;;;2.97;1.10;;;;;;;;;;5073455;28;20058;-73
2023/07/25 08:42:32;;;;;;;3.20;1.33;;;;;;;;;;5071907;28;20033;-73
2023/07/25 08:44:59;;;;;;;2.92;1.10;;;;;;;;;;5072322;28;20048;-73
2023/07/25 08:47:28;;;;;;;2.35;1.45;;;;;;;;;;5068330;28;20036;-74
2023/07/25 08:49:56;;;;;;;3.22;1.02;;;;;;;;;;5069648;28;20031;-73
2023/07/25 08:52:26;;;;;;;2.22;0.90;;;;;;;;;;5067245;28;20036;-73
2023/07/25 08:54:52;;;;;;;2.28;1.00;;;;;;;;;;5063858;28;20025;-73
2023/07/25 08:57:20;;;;;;;1.90;1.08;;;;;;;;;;5069397;28;20032;-74
2023/07/25 08:59:48;;;;;;;1.48;0.90;;;;;;;;;;5073888;28;20028;-74
2023/07/25 09:02:15;;;;;;;1.10;0.80;;;;;;;;;;5070668;28;20033;-74
2023/07/25 09:04:41;;;;;;;2.65;1.20;;;;;;;;;;5069402;28;20114;-74
2023/07/25 09:07:06;;;;;;;1.30;1.08;;;;;;;;;;5067173;28;20082;-74
2023/07/25 09:09:32;;;;;;;1.60;0.93;;;;;;;;;;5071216;28;20044;-74
2023/07/25 09:11:58;;;;;;;3.10;1.65;;;;;;;;;;5070621;28;20675;-74
2023/07/25 09:14:23;;;;;;;2.33;0.90;;;;;;;;;;5068927;28;20035;-74
2023/07/25 09:16:49;;;;;;;2.08;1.30;;;;;;;;;;5069529;28;20020;-74
2023/07/25 09:19:14;;;;;;;1.00;0.90;;;;;;;;;;5065021;28;20911;-74
2023/07/25 09:21:53;;;;;;;2.92;1.10;;;;;;;;;;5064592;28;20058;-74
2023/07/25 09:24:19;;;;;;;3.92;1.30;;;;;;;;;;5066046;28;20086;-74
2023/07/25 09:26:49;;;;;;;1.38;0.90;;;;;;;;;;5072577;28;20093;-74
2023/07/25 09:29:15;;;;;;;2.58;1.20;;;;;;;;;;5066449;28;20020;-74
2023/07/25 09:31:45;;;;;;;1.50;1.10;;;;;;;;;;5066699;28;20761;-74
2023/07/25 09:34:17;;;;;;;1.05;1.02;;;;;;;;;;5064852;28;20058;-74
2023/07/25 09:36:47;;;;;;;3.97;1.38;;;;;;;;;;5065619;28;20468;-74
2023/07/25 09:39:13;;;;;;;2.28;0.98;;;;;;;;;;5062719;28;20024;-74
2023/07/25 09:41:39;;;;;;;3.97;1.15;;;;;;;;;;5068553;28;20028;-74
2023/07/25 09:44:05;;;;;;;3.53;1.30;;;;;;;;;;5067807;28;20031;-74
2023/07/25 09:46:31;;;;;;;1.73;0.82;;;;;;;;;;5067029;28;20039;-74
2023/07/25 09:48:56;;;;;;;1.15;0.95;;;;;;;;;;5064817;28;20035;-74
2023/07/25 09:51:22;;;;;;;2.53;1.00;;;;;;;;;;5064043;28;20024;-74
2023/07/25 09:53:53;;;;;;;3.03;1.17;;;;;;;;;;5070245;28;20495;-74
2023/07/25 09:56:25;;;;;;;;;;;;;;;;;;5066277;28;20028;-74
2023/07/25 09:58:51;;;;;;;3.22;1.13;;;;;;;;;;5070270;28;19915;-74
2023/07/25 10:01:18;;;;;;;1.50;0.98;;;;;;;;;;5070001;28;20047;-74
2023/07/25 10:03:44;;;;;;;1.80;1.45;;;;;;;;;;5065621;28;20035;-74
2023/07/25 10:06:10;;;;;;;3.13;1.00;;;;;;;;;;5062372;28;20134;-74
2023/07/25 10:08:38;;;;;;;1.38;0.85;;;;;;;;;;5067381;28;20020;-74
2023/07/25 10:11:04;;;;;;;1.42;1.33;;;;;;;;;;5068944;28;20025;-74
2023/07/25 10:13:32;;;;;;;1.15;1.05;;;;;;;;;;5065821;28;20032;-74
2023/07/25 10:16:00;;;;;;;4.60;0.98;;;;;;;;;;5067425;28;20035;-74
2023/07/25 10:18:27;;;;;;;2.28;0.82;;;;;;;;;;5070004;28;20058;-74
2023/07/25 10:20:53;;;;;;;0.80;0.80;;;;;;;;;;5068934;28;20060;-74
2023/07/25 10:23:19;;;;;;;0.65;0.60;;;;;;;;;;5067778;28;20062;-74
2023/07/25 10:25:45;;;;;;;1.00;0.70;;;;;;;;;;5067443;28;20035;-74
2023/07/25 10:28:11;;;;;;;1.10;0.90;;;;;;;;;;5068424;28;20480;-74
2023/07/25 10:30:45;;;;;;;2.80;1.10;;;;;;;;;;5067355;28;20032;-74
2023/07/25 10:33:15;;;;;;;1.98;1.42;;;;;;;;;;5063814;28;20039;-74
2023/07/25 10:35:45;;;;;;;2.13;1.20;;;;;;;;;;5064050;28;20024;-74
2023/07/25 10:38:13;;;;;;;2.38;0.77;;;;;;;;;;5066674;28;20043;-74
2023/07/25 10:40:53;;;;;;;2.10;1.27;;;;;;;;;;5062623;28;20051;-74
2023/07/25 10:43:20;;;;;;;3.58;1.25;;;;;;;;;;5059574;28;20067;-74
2023/07/25 10:45:51;;;;;;;1.65;1.05;;;;;;;;;;5066380;28;20031;-74
2023/07/25 10:48:26;;;;;;;0.85;0.85;;;;;;;;;;5065623;28;20021;-74
2023/07/25 10:50:53;;;;;;;2.17;0.80;;;;;;;;;;5069801;28;20028;-74
2023/07/25 10:53:20;;;;;;;0.80;0.80;;;;;;;;;;5067066;28;20507;-74
2023/07/25 10:56:04;;;;;;;1.98;1.20;;;;;;;;;;5067174;28;20031;-74
2023/07/25 10:58:32;;;;;;;2.95;1.38;;;;;;;;;;5063250;28;20035;-74
2023/07/25 11:00:59;;;;;;;0.77;0.77;;;;;;;;;;5070229;28;20050;-74
2023/07/25 11:03:28;;;;;;;2.47;1.10;;;;;;;;;;5065095;28;20111;-74
2023/07/25 11:06:06;;;;;;;2.00;1.15;;;;;;;;;;5065150;28;20658;-74
2023/07/25 11:08:35;;;;;;;1.73;1.20;;;;;;;;;;5067319;28;20665;-74
2023/07/25 11:11:12;;;;;;;2.35;0.95;;;;;;;;;;5067458;28;20441;-74
2023/07/25 11:13:39;;;;;;;1.27;0.90;;;;;;;;;;5065237;28;20028;-74
2023/07/25 11:16:09;;;;;;;2.80;1.30;;;;;;;;;;5065705;28;20042;-74
2023/07/25 11:18:37;;;;;;;2.33;1.33;;;;;;;;;;5066638;28;20392;-74
2023/07/25 11:21:09;;;;;;;2.38;1.38;;;;;;;;;;5064263;28;20074;-74
2023/07/25 11:23:34;;;;;;;1.83;1.27;;;;;;;;;;5072675;28;20032;-73
2023/07/25 11:26:08;;;;;;;3.45;1.17;;;;;;;;;;5066389;28;20021;-74
2023/07/25 11:28:37;;;;;;;3.80;1.50;;;;;;;;;;5064010;28;20035;-74
2023/07/25 11:31:02;;;;;;;1.40;1.20;;;;;;;;;;5065617;28;20060;-74
2023/07/25 11:33:40;;;;;;;1.25;1.13;;;;;;;;;;5067767;28;20059;-74
2023/07/25 11:36:06;;;;;;;2.63;1.02;;;;;;;;;;5066662;28;20025;-74
2023/07/25 11:38:35;;;;;;;3.00;1.08;;;;;;;;;;5067194;28;20047;-74
2023/07/25 11:41:00;;;;;;;2.33;1.17;;;;;;;;;;5066979;28;20452;-74
2023/07/25 11:43:28;;;;;;;1.90;1.08;;;;;;;;;;5066413;28;20177;-74
2023/07/25 11:45:54;;;;;;;2.35;1.30;;;;;;;;;;5068674;28;20020;-74
2023/07/25 11:48:20;;;;;;;2.63;1.08;;;;;;;;;;5065526;28;20031;-74
2023/07/25 11:50:48;;;;;;;1.33;0.88;;;;;;;;;;5069687;28;20020;-74
2023/07/25 11:53:24;;;;;;;2.05;1.08;;;;;;;;;;5067056;28;20024;-74
2023/07/25 11:55:53;;;;;;;3.72;1.08;;;;;;;;;;5066568;28;20016;-74
2023/07/25 11:58:19;;;;;;;1.33;0.98;;;;;;;;;;5066319;28;20438;-74
2023/07/25 12:00:51;;;;;;;2.15;1.50;;;;;;;;;;5065117;28;20021;-74
2023/07/25 12:03:18;;;;;;;3.08;1.30;;;;;;;;;;5065929;28;20553;-74
2023/07/25 12:05:54;;;;;;;5.10;1.30;;;;;;;;;;5068356;28;20026;-74
2023/07/25 12:08:39;;;;;;;3.88;1.40;;;;;;;;;;5070488;28;20039;-74
2023/07/25 12:11:08;;;;;;;1.67;1.20;;;;;;;;;;5067685;28;20020;-74
2023/07/25 12:13:49;;;;;;;2.92;1.50;;;;;;;;;;5063721;28;20155;-74
2023/07/25 12:16:26;;;;;;;1.98;1.42;;;;;;;;;;5062467;28;20020;-74
2023/07/25 12:18:53;;;;;;;1.65;1.30;;;;;;;;;;5063055;28;20398;-74
2023/07/25 12:21:26;;;;;;;3.10;1.45;;;;;;;;;;5068822;28;20035;-74
2023/07/25 12:23:52;;;;;;;3.40;1.30;;;;;;;;;;5065070;28;20086;-74
2023/07/25 12:26:21;;;;;;;1.30;1.20;;;;;;;;;;5065839;28;20491;-74
2023/07/25 12:28:47;;;;;;;1.50;1.20;;;;;;;;;;5069252;28;20052;-74
2023/07/25 12:31:13;;;;;;;2.78;1.70;;;;;;;;;;5064999;28;20021;-74
2023/07/25 12:33:40;;;;;;;2.00;1.42;;;;;;;;;;5063330;28;20043;-74
2023/07/25 12:36:05;;;;;;;4.53;1.38;;;;;;;;;;5063376;28;20102;-74
2023/07/25 12:38:31;;;;;;;3.83;1.65;;;;;;;;;;5067770;28;20037;-74
2023/07/25 12:40:56;;;;;;;3.83;1.55;;;;;;;;;;5068113;28;20054;-74
2023/07/25 12:43:22;;;;;;;3.05;1.58;;;;;;;;;;5065098;28;20028;-73
2023/07/25 12:45:47;;;;;;;1.85;1.30;;;;;;;;;;5046730;28;20111;-74
2023/07/25 12:48:12;;;;;;;4.53;1.40;;;;;;;;;;5065342;28;20131;-74
2023/07/25 12:50:39;;;;;;;2.03;1.30;;;;;;;;;;5056134;28;20052;-73
2023/07/25 12:53:08;;;;;;;3.22;1.75;;;;;;;;;;5062674;28;20108;-74
2023/07/25 12:55:34;;;;;;;1.98;1.30;;;;;;;;;;5063643;28;20099;-74
2023/07/25 12:58:00;;;;;;;2.75;1.40;;;;;;;;;;5064130;28;20127;-74
2023/07/25 13:00:25;;;;;;;3.22;1.30;;;;;;;;;;5063758;28;20563;-74
2023/07/25 13:02:51;;;;;;;1.45;1.20;;;;;;;;;;5063562;28;20504;-74
2023/07/25 13:05:16;;;;;;;1.50;1.40;;;;;;;;;;5066921;28;20250;-74
2023/07/25 13:07:42;;;;;;;2.67;1.70;;;;;;;;;;5065214;28;21191;-74
2023/07/25 13:10:10;;;;;;;2.17;1.30;;;;;;;;;;5052753;28;20028;-74
2023/07/25 13:53:39;;;;;;;1.35;1.00;;;;;;;;;;5065180;28;20109;-75
2023/07/25 13:56:05;;;;;;;2.20;1.30;;;;;;;;;;5064283;28;20032;-74
2023/07/25 13:58:30;;;;;;;1.77;1.30;;;;;;;;;;5067833;28;20024;-74
2023/07/25 14:00:56;;;;;;;3.58;1.30;;;;;;;;;;5064631;28;20152;-74
2023/07/25 14:03:21;;;;;;;1.40;1.00;;;;;;;;;;5067038;28;21175;-74
2023/07/25 14:05:46;;;;;;;2.22;1.27;;;;;;;;;;5061490;28;20024;-74
2023/07/25 14:08:12;;;;;;;3.60;1.25;;;;;;;;;;5063139;28;20025;-74
2023/07/25 14:10:39;;;;;;;1.58;1.23;;;;;;;;;;5063993;28;20044;-74
2023/07/25 14:13:05;;;;;;;2.28;1.20;;;;;;;;;;5065510;28;20056;-74
2023/07/25 14:15:31;;;;;;;3.05;1.25;;;;;;;;;;5068811;28;21309;-74
2023/07/25 14:17:56;;;;;;;1.90;1.30;;;;;;;;;;5067451;28;20494;-74
2023/07/25 14:20:22;;;;;;;1.90;1.10;;;;;;;;;;5066965;28;20052;-74
2023/07/25 14:22:48;;;;;;;3.30;1.08;;;;;;;;;;5064002;28;20147;-73
2023/07/25 14:25:14;;;;;;;3.38;1.05;;;;;;;;;;5065148;28;20025;-74
2023/07/25 14:27:40;;;;;;;2.05;1.00;;;;;;;;;;5065419;28;20170;-73
2023/07/25 14:30:06;;;;;;;1.83;1.10;;;;;;;;;;5063002;28;20115;-75
2023/07/25 14:32:31;;;;;;;2.45;0.80;;;;;;;;;;5061924;28;20025;-73
2023/07/25 14:34:56;;;;;;;1.50;1.30;;;;;;;;;;5065689;28;20032;-73
2023/07/25 14:37:22;;;;;;;1.48;1.17;;;;;;;;;;5065900;28;20035;-74
2023/07/25 14:39:49;;;;;;;3.28;1.10;;;;;;;;;;5061189;28;20055;-74
2023/07/25 14:42:14;;;;;;;1.95;1.00;;;;;;;;;;5064874;28;20032;-73
2023/07/25 14:44:39;;;;;;;3.03;1.27;;;;;;;;;;5061611;28;20036;-74
2023/07/25 14:47:05;;;;;;;3.05;1.45;;;;;;;;;;5063212;28;20020;-73
2023/07/25 14:49:30;;;;;;;2.33;1.38;;;;;;;;;;5062157;28;20118;-74
2023/07/25 14:51:56;;;;;;;1.42;1.20;;;;;;;;;;5065195;28;20115;-74
2023/07/25 14:54:21;;;;;;;0.80;0.80;;;;;;;;;;5065082;28;20476;-73
2023/07/25 14:56:47;;;;;;;1.75;0.90;;;;;;;;;;5064717;28;20033;-73
2023/07/25 14:59:12;;;;;;;2.58;1.25;;;;;;;;;;5063433;28;20072;-73
2023/07/25 15:01:38;;;;;;;4.85;1.40;;;;;;;;;;5067812;28;20054;-73
2023/07/25 15:04:04;;;;;;;2.33;1.20;;;;;;;;;;5069071;28;20404;-73
2023/07/25 15:06:30;;;;;;;0.98;0.90;;;;;;;;;;5059999;28;20488;-73
2023/07/25 15:08:55;;;;;;;1.63;1.05;;;;;;;;;;5065872;28;20041;-74
2023/07/25 15:11:21;;;;;;;1.38;0.98;;;;;;;;;;5063878;28;20709;-73
2023/07/25 15:13:46;;;;;;;1.85;1.20;;;;;;;;;;5064226;28;20035;-74
2023/07/25 15:16:12;;;;;;;1.23;1.00;;;;;;;;;;5056873;28;20028;-74
2023/07/25 15:18:37;;;;;;;0.90;0.90;;;;;;;;;;5067192;28;20032;-74
2023/07/25 15:21:03;;;;;;;1.80;1.40;;;;;;;;;;5063659;28;20024;-74
2023/07/25 15:23:30;;;;;;;1.83;1.17;;;;;;;;;;5064077;28;20507;-74
2023/07/25 15:25:55;;;;;;;1.92;1.20;;;;;;;;;;5057413;28;20028;-74
2023/07/25 15:28:21;;;;;;;2.22;1.30;;;;;;;;;;5063301;28;20608;-74
2023/07/25 15:30:46;;;;;;;2.67;1.10;;;;;;;;;;5063037;28;20067;-74
2023/07/25 15:33:12;;;;;;;1.63;1.00;;;;;;;;;;5061887;28;20023;-74
2023/07/25 15:35:37;;;;;;;1.33;1.00;;;;;;;;;;5055855;28;20032;-74
2023/07/25 15:38:02;;;;;;;2.35;1.08;;;;;;;;;;5060939;28;20381;-74
2023/07/25 15:40:28;;;;;;;2.70;1.02;;;;;;;;;;5058891;28;20033;-74
2023/07/25 15:42:54;;;;;;;1.08;0.93;;;;;;;;;;5061124;28;20028;-74
2023/07/25 15:45:19;;;;;;;2.95;0.95;;;;;;;;;;5057716;28;20568;-74
2023/07/25 15:47:44;;;;;;;1.67;0.90;;;;;;;;;;5062321;28;20103;-74
2023/07/25 15:50:10;;;;;;;2.85;0.90;;;;;;;;;;5061282;28;20021;-73
2023/07/25 15:52:35;;;;;;;2.10;0.90;;;;;;;;;;5064776;28;20559;-74
2023/07/25 15:55:03;;;;;;;3.30;1.13;;;;;;;;;;5060626;28;20020;-74
2023/07/25 15:57:28;;;;;;;1.63;1.15;;;;;;;;;;5057618;28;20024;-74
2023/07/25 15:59:54;;;;;;;1.00;0.90;;;;;;;;;;5062414;28;20025;-74
2023/07/25 16:02:19;;;;;;;1.42;0.73;;;;;;;;;;5065785;28;20118;-74
2023/07/25 16:04:45;;;;;;;1.23;1.10;;;;;;;;;;5064047;28;20080;-74
2023/07/25 16:07:10;;;;;;;1.55;1.00;;;;;;;;;;5057652;28;20017;-74
2023/07/25 16:09:35;;;;;;;2.25;1.13;;;;;;;;;;5062475;28;20036;-74
2023/07/25 16:12:01;;;;;;;1.00;1.00;;;;;;;;;;5059289;28;21168;-74
2023/07/25 16:14:26;;;;;;;1.33;1.02;;;;;;;;;;5059075;28;20397;-74
2023/07/25 16:16:52;;;;;;;2.70;1.20;;;;;;;;;;5064169;28;20121;-74
2023/07/25 16:19:17;;;;;;;1.52;1.00;;;;;;;;;;5060960;28;20131;-74
2023/07/25 16:21:43;;;;;;;1.25;1.05;;;;;;;;;;5060506;28;20882;-74
2023/07/25 16:24:08;;;;;;;1.52;1.10;;;;;;;;;;5057571;28;20045;-74
2023/07/25 16:26:33;;;;;;;3.35;1.52;;;;;;;;;;5059729;28;20058;-74
2023/07/25 16:28:59;;;;;;;2.78;1.70;;;;;;;;;;5063684;28;20531;-74
2023/07/25 16:31:25;;;;;;;3.78;1.15;;;;;;;;;;5063968;28;20445;-74
2023/07/25 16:33:51;;;;;;;2.33;1.08;;;;;;;;;;5064004;28;20609;-74
2023/07/25 16:36:16;;;;;;;2.90;1.25;;;;;;;;;;5061663;28;20061;-74
2023/07/25 16:38:41;;;;;;;2.30;1.08;;;;;;;;;;5063230;28;20097;-74
2023/07/25 16:41:07;;;;;;;3.10;1.00;;;;;;;;;;5064487;28;20021;-74
2023/07/25 16:43:32;;;;;;;1.20;1.05;;;;;;;;;;5062356;28;20028;-74
2023/07/25 16:45:58;;;;;;;1.80;0.60;;;;;;;;;;5056858;28;20086;-74
2023/07/25 16:48:23;;;;;;;1.02;0.90;;;;;;;;;;5064030;28;20032;-74
2023/07/25 16:50:49;;;;;;;1.38;0.90;;;;;;;;;;5061230;28;20148;-74
2023/07/25 16:53:14;;;;;;;0.90;0.90;;;;;;;;;;5071053;28;20029;-74
2023/07/25 16:55:39;;;;;;;2.05;1.38;;;;;;;;;;5060060;28;20063;-74
2023/07/25 16:58:05;;;;;;;1.77;1.10;;;;;;;;;;5060331;28;20036;-74
2023/07/25 17:00:30;;;;;;;1.58;1.27;;;;;;;;;;5071219;28;20025;-74
2023/07/25 17:02:56;;;;;;;2.33;1.27;;;;;;;;;;5066697;28;20040;-74
2023/07/25 17:05:21;;;;;;;3.80;1.73;;;;;;;;;;5069366;28;20176;-74
2023/07/25 17:07:47;;;;;;;3.33;1.42;;;;;;;;;;5068932;28;20024;-74
2023/07/25 17:10:12;;;;;;;1.45;1.05;;;;;;;;;;5067535;28;20124;-74
2023/07/25 17:12:38;;;;;;;3.75;2.60;;;;;;;;;;5065916;28;20031;-74
2023/07/25 17:15:04;;;;;;;2.97;1.35;;;;;;;;;;5067973;28;20032;-74
2023/07/25 17:17:29;;;;;;;2.25;1.38;;;;;;;;;;5067586;28;20652;-74
2023/07/25 17:19:55;;;;;;;1.20;1.10;;;;;;;;;;5069875;28;20036;-74
2023/07/25 17:22:20;;;;;;;1.50;1.40;;;;;;;;;;5068915;28;20071;-74
2023/07/25 17:24:45;;;;;;;2.75;1.10;;;;;;;;;;5066359;28;20033;-74
2023/07/25 17:27:11;;;;;;;2.90;1.10;;;;;;;;;;5060948;28;20028;-74
2023/07/25 17:29:36;;;;;;;1.58;1.17;;;;;;;;;;5069064;28;20137;-74
2023/07/25 17:32:02;;;;;;;4.22;1.77;;;;;;;;;;5068954;28;20032;-74
2023/07/25 17:34:27;;;;;;;1.70;0.98;;;;;;;;;;5068489;28;20031;-74
2023/07/25 17:36:53;;;;;;;2.15;1.35;;;;;;;;;;5065026;28;20032;-74
2023/07/25 17:39:18;;;;;;;2.58;1.20;;;;;;;;;;5061514;28;20024;-74
2023/07/25 17:41:44;;;;;;;3.00;1.60;;;;;;;;;;5061734;28;20463;-74
2023/07/25 17:44:09;;;;;;;2.05;1.30;;;;;;;;;;5068606;28;20024;-74
2023/07/25 17:46:34;;;;;;;1.15;1.10;;;;;;;;;;5069491;28;20029;-74
2023/07/25 17:49:00;;;;;;;1.13;1.02;;;;;;;;;;5067210;28;20139;-74
2023/07/25 17:51:26;;;;;;;2.75;1.30;;;;;;;;;;5057319;28;20056;-75
2023/07/25 17:53:51;;;;;;;3.20;1.40;;;;;;;;;;5047843;28;20024;-74
2023/07/25 17:56:17;;;;;;;1.42;1.27;;;;;;;;;;5056692;28;20109;-75
2023/07/25 17:58:42;;;;;;;0.93;0.93;;;;;;;;;;5056379;28;20056;-74
2023/07/25 18:01:08;;;;;;;2.78;1.17;;;;;;;;;;5055777;28;20067;-75
2023/07/25 18:03:33;;;;;;;1.48;1.25;;;;;;;;;;5054069;28;20028;-74
2023/07/25 18:05:58;;;;;;;1.25;1.05;;;;;;;;;;5057103;28;20024;-74
2023/07/25 18:08:24;;;;;;;1.58;1.10;;;;;;;;;;5056593;28;20115;-74
2023/07/25 18:10:50;;;;;;;1.75;1.00;;;;;;;;;;5055596;28;20032;-75
2023/07/25 18:13:19;;;;;;;3.28;1.13;;;;;;;;;;5051398;28;20033;-75
2023/07/25 18:15:45;;;;;;;2.88;1.08;;;;;;;;;;5047857;28;20699;-74
2023/07/25 18:18:12;;;;;;;2.90;1.38;;;;;;;;;;5050215;28;20133;-74
2023/07/25 18:20:38;;;;;;;4.18;1.63;;;;;;;;;;5052192;28;20047;-75
2023/07/25 18:23:03;;;;;;;1.00;0.90;;;;;;;;;;5050740;28;20412;-74
2023/07/25 18:25:29;;;;;;;2.50;1.13;;;;;;;;;;5053574;28;20396;-74
2023/07/25 18:27:54;;;;;;;1.33;0.85;;;;;;;;;;5053711;28;20093;-74
2023/07/25 18:30:19;;;;;;;1.25;1.00;;;;;;;;;;5052074;28;20086;-74
2023/07/25 18:32:45;;;;;;;1.10;1.00;;;;;;;;;;5049165;28;20020;-74
2023/07/25 18:35:11;;;;;;;1.52;1.08;;;;;;;;;;5054868;28;20585;-74
2023/07/25 18:37:36;;;;;;;2.35;1.10;;;;;;;;;;5051510;28;20454;-74
2023/07/25 18:40:02;;;;;;;0.95;0.80;;;;;;;;;;5054464;28;20032;-74
2023/07/25 18:42:27;;;;;;;1.25;0.85;;;;;;;;;;5054838;28;20554;-75
2023/07/25 18:44:53;;;;;;;0.60;0.60;;;;;;;;;;5055282;28;20032;-75
2023/07/25 18:47:19;;;;;;;1.85;0.80;;;;;;;;;;5053607;28;20036;-75
2023/07/25 18:49:44;;;;;;;1.50;0.90;;;;;;;;;;5052847;28;20025;-75
2023/07/25 18:52:10;;;;;;;0.82;0.82;;;;;;;;;;5052031;28;20032;-75
2023/07/25 18:54:35;;;;;;;1.70;0.95;;;;;;;;;;5046176;28;20089;-76
2023/07/25 18:57:01;;;;;;;0.73;0.73;;;;;;;;;;5051134;28;20016;-75
2023/07/25 18:59:26;;;;;;;1.48;0.80;;;;;;;;;;5053755;28;20119;-74
2023/07/25 19:01:51;;;;;;;1.02;0.70;;;;;;;;;;5052690;28;20467;-74
2023/07/25 19:04:17;;;;;;;1.17;1.00;;;;;;;;;;5052791;28;20033;-75
2023/07/25 19:06:42;;;;;;;2.03;1.10;;;;;;;;;;5054458;28;20026;-75
2023/07/25 19:09:08;;;;;;;1.83;1.20;;;;;;;;;;5053635;28;20044;-75
2023/07/25 19:11:33;;;;;;;0.90;0.80;;;;;;;;;;5053750;28;20032;-74
2023/07/25 19:13:58;;;;;;;1.70;0.95;;;;;;;;;;5054577;28;20036;-74
2023/07/25 19:16:24;;;;;;;1.40;0.93;;;;;;;;;;5052851;28;20059;-74
2023/07/25 19:18:49;;;;;;;0.70;0.63;;;;;;;;;;5050436;28;20031;-73
2023/07/25 19:21:15;;;;;;;1.42;0.95;;;;;;;;;;5051382;28;20877;-74
2023/07/25 19:23:40;;;;;;;2.00;1.08;;;;;;;;;;5054581;28;20055;-74
2023/07/25 19:26:05;;;;;;;1.10;1.00;;;;;;;;;;5051926;28;20103;-74
2023/07/25 19:28:31;;;;;;;1.42;1.00;;;;;;;;;;5055731;28;20059;-74
2023/07/25 19:30:57;;;;;;;2.55;1.20;;;;;;;;;;5053714;28;20034;-73
2023/07/25 19:33:24;;;;;;;2.25;1.00;;;;;;;;;;5053625;28;20048;-74
2023/07/25 19:35:54;;;;;;;1.10;1.00;;;;;;;;;;5054609;28;20032;-75
2023/07/25 19:38:21;;;;;;;1.30;1.17;;;;;;;;;;5054043;28;20694;-74
2023/07/25 19:40:46;;;;;;;2.08;1.05;;;;;;;;;;5053621;28;20069;-74
2023/07/25 19:43:11;;;;;;;1.60;1.50;;;;;;;;;;5053286;28;20024;-76
2023/07/25 19:45:37;;;;;;;1.75;1.17;;;;;;;;;;5055247;28;20419;-75
2023/07/25 19:48:02;;;;;;;1.70;1.00;;;;;;;;;;5055324;28;20074;-74
2023/07/25 19:50:27;;;;;;;1.70;1.10;;;;;;;;;;5055053;28;20024;-76